KCKV

Outlaw Field Airport

Clarksville, Tennessee, USA
KCKV 251516Z 2515/2612 17005KT P6SM BKN015 OVC030 FM251700 19012KT P6SM BKN035 TEMPO 2517/2521 3SM TSRA BKN025CB FM252100 19010KT 5SM -SHRA BKN035 FM260600 21007KT P6SM VCSH BKN040
Issued Valid From Valid To
Sep-25 @ 15:16 UTC
(2 hours ago)
Sep-25 @ 15:00 UTC
(2 hours ago)
Sep-26 @ 12:00 UTC
(in 19 hours)
Expired Click to View Sep-25 @ 15:00 to Sep-25 @ 17:00
KCKV 251516Z 2515/2612 17005KT P6SM BKN015 OVC030
Wind Visibility Clouds
170° at 5 knots Greater than 6 miles
  • Broken at 1,500' AGL
  • Overcast at 3,000' AGL
Temporary Sep-25 @ 17:00 to Sep-25 @ 21:00
TEMPO 2517/2521 3SM TSRA BKN025CB
Visibility Clouds Conditions
3 miles
  • Broken at 2,500' AGL
  • Thunderstorm
  • Rain
From Sep-25 @ 17:00 to Sep-25 @ 21:00
FM251700 19012KT P6SM BKN035
Wind Visibility Clouds
190° at 12 knots Greater than 6 miles
  • Broken at 3,500' AGL
From Sep-25 @ 21:00 to Sep-26 @ 06:00
FM252100 19010KT 5SM -SHRA BKN035
Wind Visibility Clouds Conditions
190° at 10 knots 5 miles
  • Broken at 3,500' AGL
  • Light Rain
From Sep-26 @ 06:00 to Sep-26 @ 12:00
FM260600 21007KT P6SM VCSH BKN040
Wind Visibility Clouds
210° at 7 knots Greater than 6 miles
  • Broken at 4,000' AGL
KCKV 251516Z 2515/2612 17005KT P6SM BKN015 OVC030 FM251700 19012KT P6SM BKN035 TEMPO 2517/2521 3SM TSRA BKN025CB FM252100 19010KT 5SM -SHRA BKN035 FM260600 21007KT P6SM VCSH BKN040
Issued Sep-25 @ 15:16 UTC
(2 hours ago)
Valid From Sep-25 @ 15:00 UTC
(2 hours ago)
Valid To Sep-26 @ 12:00 UTC
(in 19 hours)
Sep-25 @ 15:00 - Sep-25 @ 17:00
Wind Visibility
170° at 5 knots Greater than 6 miles
Clouds
  • Broken at 1,500' AGL
  • Overcast at 3,000' AGL
Temporary Sep-25 @ 17:00 - Sep-25 @ 21:00
Clouds
  • Broken at 2,500' AGL
Conditions
  • Thunderstorm
  • Rain
From Sep-25 @ 17:00 - Sep-25 @ 21:00
Wind Visibility
190° at 12 knots Greater than 6 miles
Clouds
  • Broken at 3,500' AGL
From Sep-25 @ 21:00 - Sep-26 @ 06:00
Wind Visibility
190° at 10 knots 5 miles
Clouds
  • Broken at 3,500' AGL
Conditions
  • Light Rain
From Sep-26 @ 06:00 - Sep-26 @ 12:00
Wind Visibility
210° at 7 knots Greater than 6 miles
Clouds
  • Broken at 4,000' AGL